Time;durP1;ratioP1;P1;durP2;ratioP2;P2;SDS_P1;SDS_P2;PMS_P1;PMS_P2;Temp;Humidity;BMP_temperature;BMP_pressure;BME280_temperature;BME280_humidity;BME280_pressure;Samples;Min_cycle;Max_cycle;Signal;HPM_P1;HPM_P2
2022/03/28 00:01:15;;;;;;;14.20;12.70;;;10.60;59.00;;;;;;5018861;28;20512;-81
2022/03/28 00:03:41;;;;;;;14.27;11.63;;;10.60;59.10;;;;;;5016411;28;20040;-82
2022/03/28 00:06:07;;;;;;;14.07;12.15;;;10.60;59.20;;;;;;5023734;28;20025;-81
2022/03/28 00:08:34;;;;;;;13.63;11.85;;;10.50;59.00;;;;;;5023526;28;20107;-82
2022/03/28 00:11:00;;;;;;;14.80;11.32;;;10.50;59.10;;;;;;5034012;28;20026;-82
2022/03/28 00:13:26;;;;;;;13.98;12.57;;;10.50;59.20;;;;;;5058782;28;20033;-82
2022/03/28 00:15:52;;;;;;;13.73;12.32;;;10.40;59.10;;;;;;5041388;28;20056;-82
2022/03/28 00:18:18;;;;;;;13.95;12.40;;;10.40;59.10;;;;;;5058019;28;20071;-83
2022/03/28 00:20:46;;;;;;;13.65;12.30;;;10.40;59.20;;;;;;5045218;28;20427;-82
2022/03/28 00:23:13;;;;;;;14.02;12.43;;;10.30;59.60;;;;;;5049244;28;20032;-82
2022/03/28 00:25:40;;;;;;;14.38;12.88;;;10.30;59.10;;;;;;5053983;28;20081;-82
2022/03/28 00:28:09;;;;;;;14.55;12.95;;;10.30;59.10;;;;;;5064018;28;20034;-81
2022/03/28 00:30:35;;;;;;;17.35;12.93;;;10.20;59.00;;;;;;5038860;28;20651;-81
2022/03/28 00:33:00;;;;;;;15.40;12.43;;;10.20;59.00;;;;;;5018073;28;20120;-81
2022/03/28 00:35:27;;;;;;;15.63;13.40;;;10.20;59.10;;;;;;5036896;28;20564;-82
2022/03/28 00:37:56;;;;;;;14.68;13.05;;;10.10;58.90;;;;;;5040852;28;20117;-82
2022/03/28 00:40:23;;;;;;;14.57;12.38;;;10.10;59.00;;;;;;5020834;28;20025;-81
2022/03/28 00:42:49;;;;;;;14.93;12.77;;;10.10;59.00;;;;;;5014831;28;20021;-81
2022/03/28 00:45:16;;;;;;;15.00;12.90;;;10.10;59.00;;;;;;5025475;28;20097;-82
2022/03/28 00:47:43;;;;;;;16.27;13.38;;;10.10;59.10;;;;;;5008443;28;20501;-83
2022/03/28 00:50:10;;;;;;;15.13;13.48;;;10.00;58.90;;;;;;5027258;28;20029;-82
2022/03/28 00:52:38;;;;;;;13.43;11.98;;;10.00;59.00;;;;;;5024249;28;20408;-82
2022/03/28 00:55:05;;;;;;;14.45;12.05;;;10.00;59.00;;;;;;5031649;28;20042;-83
2022/03/28 00:57:32;;;;;;;13.70;12.30;;;10.00;59.00;;;;;;5031494;28;20065;-83
2022/03/28 01:00:05;;;;;;;15.80;12.43;;;9.90;58.90;;;;;;5022315;28;20139;-83
2022/03/28 01:02:31;;;;;;;13.55;11.52;;;9.90;58.90;;;;;;5023165;28;20037;-84
2022/03/28 01:04:59;;;;;;;13.45;12.02;;;9.90;58.90;;;;;;5014510;28;20045;-86
2022/03/28 01:07:28;;;;;;;14.77;12.73;;;9.80;58.60;;;;;;5009558;28;20149;-84
2022/03/28 01:09:59;;;;;;;13.65;11.73;;;9.80;58.70;;;;;;5035716;28;20037;-85
2022/03/28 01:12:31;;;;;;;14.80;11.80;;;9.80;58.70;;;;;;5034858;28;20026;-83
2022/03/28 01:14:58;;;;;;;14.35;12.30;;;9.80;58.80;;;;;;5040795;28;20055;-83
2022/03/28 01:20:09;;;;;;;16.33;12.55;;;9.70;58.60;;;;;;5020475;28;20037;-81
2022/03/28 01:22:36;;;;;;;15.88;13.20;;;9.70;58.60;;;;;;5033846;28;20045;-80
2022/03/28 01:25:05;;;;;;;14.35;12.63;;;9.70;58.60;;;;;;5011338;28;20611;-80
2022/03/28 01:27:32;;;;;;;14.18;12.68;;;9.60;58.50;;;;;;5018562;28;20029;-80
2022/03/28 01:29:58;;;;;;;16.40;12.93;;;9.60;58.50;;;;;;5022189;28;20037;-80
2022/03/28 01:32:24;;;;;;;15.52;12.73;;;9.60;58.50;;;;;;5008650;28;20042;-80
2022/03/28 01:34:50;;;;;;;13.23;11.98;;;9.60;58.60;;;;;;5021125;28;20030;-81
2022/03/28 01:37:16;;;;;;;12.10;10.75;;;9.50;58.40;;;;;;5021905;28;20029;-81
2022/03/28 01:39:42;;;;;;;14.70;12.90;;;9.50;58.50;;;;;;5019829;28;20030;-81
2022/03/28 01:42:08;;;;;;;15.13;12.82;;;9.40;58.40;;;;;;5016783;28;20555;-81
2022/03/28 01:44:34;;;;;;;14.52;12.40;;;9.40;58.40;;;;;;5008257;28;20414;-80
2022/03/28 01:47:00;;;;;;;14.40;12.90;;;9.40;58.40;;;;;;5039759;28;20045;-81
2022/03/28 01:49:26;;;;;;;14.18;12.70;;;9.30;58.20;;;;;;5036528;28;20436;-81
2022/03/28 01:51:52;;;;;;;15.13;13.52;;;9.30;58.30;;;;;;5027784;28;20036;-81
2022/03/28 01:54:18;;;;;;;13.80;12.38;;;9.30;58.30;;;;;;5027750;28;20444;-81
2022/03/28 01:56:44;;;;;;;14.30;12.38;;;9.30;58.40;;;;;;5038425;28;20529;-81
2022/03/28 01:59:11;;;;;;;13.85;12.43;;;9.30;58.40;;;;;;5027211;28;20040;-80
2022/03/28 02:01:37;;;;;;;15.32;12.77;;;9.30;58.50;;;;;;5026272;28;20037;-80
2022/03/28 02:04:04;;;;;;;14.90;13.30;;;9.20;58.30;;;;;;5027563;28;20029;-81
2022/03/28 02:06:32;;;;;;;14.93;12.85;;;9.20;58.30;;;;;;5027281;28;20034;-81
2022/03/28 02:08:58;;;;;;;14.18;12.15;;;9.20;58.30;;;;;;5025871;28;20497;-82
2022/03/28 02:11:24;;;;;;;14.95;13.25;;;9.20;58.40;;;;;;5026995;28;20041;-82
2022/03/28 02:13:51;;;;;;;13.95;12.45;;;9.20;58.40;;;;;;5034927;28;20037;-82
2022/03/28 02:16:17;;;;;;;15.90;13.77;;;9.20;58.40;;;;;;5026228;28;20489;-81
2022/03/28 02:18:43;;;;;;;15.75;13.30;;;9.20;58.40;;;;;;5023151;28;20514;-81
2022/03/28 02:21:09;;;;;;;14.90;13.18;;;9.20;58.40;;;;;;5025550;28;20384;-80
2022/03/28 02:23:35;;;;;;;14.35;12.85;;;9.20;58.50;;;;;;5026724;28;20029;-81
2022/03/28 02:26:02;;;;;;;14.80;13.18;;;9.10;58.30;;;;;;5026946;28;20056;-82
2022/03/28 02:28:29;;;;;;;14.43;12.85;;;9.10;58.40;;;;;;5026421;28;20041;-82
2022/03/28 02:30:55;;;;;;;17.08;13.75;;;9.10;58.40;;;;;;5023861;28;20481;-81
2022/03/28 02:33:22;;;;;;;16.42;14.65;;;9.10;58.50;;;;;;5026014;28;20091;-82
2022/03/28 02:35:48;;;;;;;15.93;14.23;;;9.10;58.50;;;;;;5023005;28;20076;-82
2022/03/28 02:38:14;;;;;;;16.60;14.45;;;9.10;58.60;;;;;;5026927;28;20080;-82
2022/03/28 02:40:40;;;;;;;15.90;14.25;;;9.00;58.40;;;;;;5024860;28;20041;-86
2022/03/28 02:43:07;;;;;;;17.13;14.85;;;9.00;58.50;;;;;;5025763;28;20079;-83
2022/03/28 02:45:35;;;;;;;16.45;13.95;;;9.00;58.50;;;;;;5026649;28;20029;-82
2022/03/28 02:48:03;;;;;;;18.33;15.20;;;8.90;58.40;;;;;;5034740;28;20057;-82
2022/03/28 02:50:30;;;;;;;17.67;14.68;;;9.00;58.60;;;;;;5024792;28;20040;-83
2022/03/28 02:52:56;;;;;;;17.52;15.20;;;9.00;58.70;;;;;;5009424;28;20033;-82
2022/03/28 02:55:23;;;;;;;17.63;15.75;;;9.00;58.70;;;;;;5025335;28;20538;-82
2022/03/28 02:57:49;;;;;;;19.13;15.63;;;9.00;58.80;;;;;;5024962;28;20017;-82
2022/03/28 03:00:15;;;;;;;17.23;15.00;;;8.90;58.60;;;;;;5026377;28;20124;-83
2022/03/28 03:02:43;;;;;;;17.05;15.25;;;8.90;58.60;;;;;;5026520;28;20129;-82
2022/03/28 03:05:10;;;;;;;17.75;15.85;;;8.90;58.70;;;;;;5026639;28;20425;-83
2022/03/28 03:07:36;;;;;;;18.63;15.13;;;8.90;58.70;;;;;;5026618;28;20038;-83
2022/03/28 03:10:03;;;;;;;19.17;15.13;;;8.90;58.80;;;;;;5026510;28;20108;-83
2022/03/28 03:12:29;;;;;;;17.20;15.30;;;8.90;58.80;;;;;;5025570;28;20029;-84
2022/03/28 03:14:55;;;;;;;17.40;15.10;;;8.90;58.80;;;;;;5026684;28;20033;-83
2022/03/28 03:17:21;;;;;;;17.98;15.73;;;8.90;58.90;;;;;;5022196;28;20033;-82
2022/03/28 03:19:48;;;;;;;17.45;14.88;;;8.90;58.90;;;;;;5032567;28;20400;-82
2022/03/28 03:22:14;;;;;;;17.08;14.60;;;8.80;58.80;;;;;;5028068;28;20238;-82
2022/03/28 03:24:41;;;;;;;18.83;15.43;;;8.80;58.80;;;;;;5044269;28;20033;-82
2022/03/28 03:27:07;;;;;;;18.65;15.30;;;8.80;59.00;;;;;;5028199;28;20025;-82
2022/03/28 03:29:35;;;;;;;17.90;15.23;;;8.80;59.00;;;;;;5030260;28;20749;-81
2022/03/28 03:32:02;;;;;;;20.73;16.50;;;8.80;59.00;;;;;;5011404;28;20026;-81
2022/03/28 03:34:30;;;;;;;19.27;16.23;;;8.80;59.10;;;;;;5025673;28;20064;-82
2022/03/28 03:36:56;;;;;;;19.42;16.27;;;8.80;59.10;;;;;;5029267;28;20199;-82
2022/03/28 03:39:22;;;;;;;17.15;15.23;;;8.70;59.00;;;;;;5032632;28;20025;-82
2022/03/28 03:41:49;;;;;;;18.13;16.05;;;8.70;59.00;;;;;;5034464;28;20034;-82
2022/03/28 03:44:15;;;;;;;17.95;16.05;;;8.70;59.10;;;;;;5033651;28;20404;-82
2022/03/28 03:46:41;;;;;;;18.70;16.20;;;8.70;59.10;;;;;;5023465;28;20152;-82
2022/03/28 03:49:08;;;;;;;19.70;16.75;;;8.70;59.20;;;;;;5029493;28;20041;-82
2022/03/28 03:51:35;;;;;;;20.33;16.58;;;8.70;59.20;;;;;;5030434;28;20022;-82
2022/03/28 03:54:01;;;;;;;19.48;17.02;;;8.70;59.20;;;;;;5029976;28;20540;-83
2022/03/28 03:56:30;;;;;;;20.40;16.73;;;8.70;59.20;;;;;;5029436;28;20057;-82
2022/03/28 03:58:56;;;;;;;17.58;15.57;;;8.70;59.20;;;;;;5030465;28;20032;-83
2022/03/28 04:01:23;;;;;;;18.98;16.85;;;8.70;59.20;;;;;;5028648;28;20199;-81
2022/03/28 04:03:49;;;;;;;20.73;17.55;;;8.70;59.30;;;;;;5028134;28;20349;-81
2022/03/28 04:06:15;;;;;;;19.73;16.80;;;8.80;59.40;;;;;;5028060;28;20290;-81
2022/03/28 04:08:41;;;;;;;22.33;18.35;;;8.70;59.30;;;;;;5029412;28;20103;-82
2022/03/28 04:11:07;;;;;;;18.45;16.08;;;8.70;59.40;;;;;;5028289;28;20021;-82
2022/03/28 04:13:35;;;;;;;20.30;17.55;;;8.70;59.40;;;;;;5028538;28;20037;-83
2022/03/28 04:16:02;;;;;;;20.27;17.73;;;8.70;59.40;;;;;;5044619;28;20136;-83
2022/03/28 04:18:28;;;;;;;21.08;18.23;;;8.70;59.40;;;;;;5029498;28;20026;-82
2022/03/28 04:20:55;;;;;;;20.70;17.60;;;8.70;59.50;;;;;;5029434;28;20098;-81
2022/03/28 04:23:22;;;;;;;20.05;16.80;;;8.70;59.60;;;;;;5044595;28;20029;-81
2022/03/28 04:25:48;;;;;;;21.98;17.75;;;8.70;59.60;;;;;;5037858;28;20026;-83
2022/03/28 04:28:14;;;;;;;20.27;17.95;;;8.60;59.50;;;;;;5039183;28;20603;-82
2022/03/28 04:30:40;;;;;;;24.63;19.73;;;8.60;59.50;;;;;;5028887;28;20143;-83
2022/03/28 04:33:09;;;;;;;22.02;18.33;;;8.60;59.60;;;;;;5028341;28;20385;-83
2022/03/28 04:35:37;;;;;;;21.75;18.48;;;8.60;59.70;;;;;;5025190;28;20026;-81
2022/03/28 04:38:05;;;;;;;24.20;20.02;;;8.60;59.70;;;;;;5027916;28;20018;-81
2022/03/28 04:40:33;;;;;;;24.50;19.35;;;8.60;59.80;;;;;;5026970;28;20041;-82
2022/03/28 04:43:00;;;;;;;24.13;20.27;;;8.60;59.80;;;;;;5028829;28;20032;-81
2022/03/28 04:45:27;;;;;;;23.65;19.15;;;8.60;59.80;;;;;;5028557;28;20112;-83
2022/03/28 04:47:53;;;;;;;23.05;19.05;;;8.60;59.90;;;;;;5018958;28;20045;-83
2022/03/28 04:50:19;;;;;;;25.30;19.42;;;8.60;59.90;;;;;;5022744;28;20033;-83
2022/03/28 04:52:45;;;;;;;22.35;17.88;;;8.50;59.70;;;;;;5023200;28;20037;-83
2022/03/28 04:55:11;;;;;;;25.40;19.23;;;8.60;59.90;;;;;;5025697;28;20110;-82
2022/03/28 04:57:37;;;;;;;26.92;20.08;;;8.50;59.80;;;;;;5040482;28;20033;-81
2022/03/28 05:00:06;;;;;;;24.10;19.60;;;8.50;59.80;;;;;;5025091;28;20037;-82
2022/03/28 05:02:34;;;;;;;23.83;19.90;;;8.50;59.80;;;;;;5020839;28;20026;-82
2022/03/28 05:05:00;;;;;;;24.25;20.20;;;8.50;59.80;;;;;;5023908;28;20490;-83
2022/03/28 05:07:27;;;;;;;23.55;19.52;;;8.50;59.90;;;;;;5022691;28;20347;-82
2022/03/28 05:09:54;;;;;;;24.88;20.83;;;8.50;59.90;;;;;;5024948;28;20503;-83
2022/03/28 05:12:20;;;;;;;25.85;21.05;;;8.50;60.00;;;;;;5021775;28;20045;-81
2022/03/28 05:14:47;;;;;;;24.88;20.05;;;8.40;59.80;;;;;;5019505;28;20029;-84
2022/03/28 05:17:15;;;;;;;24.55;20.27;;;8.40;59.90;;;;;;5024811;28;20049;-84
2022/03/28 05:19:42;;;;;;;27.80;22.83;;;8.40;59.90;;;;;;5023398;28;20033;-83
2022/03/28 05:22:08;;;;;;;24.73;20.77;;;8.40;60.00;;;;;;5021802;28;20447;-84
2022/03/28 05:24:34;;;;;;;26.88;20.45;;;8.30;59.90;;;;;;5021345;28;20522;-84
2022/03/28 05:27:00;;;;;;;26.15;19.75;;;8.40;60.10;;;;;;5022295;28;20037;-84
2022/03/28 05:29:26;;;;;;;26.95;21.45;;;8.30;59.90;;;;;;5035402;28;20638;-79
2022/03/28 05:31:52;;;;;;;24.63;19.40;;;8.30;60.00;;;;;;5024980;28;20836;-80
2022/03/28 05:34:18;;;;;;;24.42;20.10;;;8.30;60.00;;;;;;5021275;28;20040;-80
2022/03/28 05:36:45;;;;;;;24.45;20.88;;;8.30;60.00;;;;;;5018623;28;20523;-79
2022/03/28 05:39:12;;;;;;;22.50;19.48;;;8.30;60.10;;;;;;5022680;28;20500;-81
2022/03/28 05:41:38;;;;;;;25.00;20.45;;;8.30;60.10;;;;;;5018246;28;20037;-81
2022/03/28 05:44:04;;;;;;;26.23;21.58;;;8.20;60.00;;;;;;5016490;28;20034;-82
2022/03/28 05:46:30;;;;;;;26.00;20.50;;;8.20;60.00;;;;;;5005761;28;20029;-83
2022/03/28 05:48:56;;;;;;;25.00;19.73;;;8.20;60.00;;;;;;5020449;28;20404;-83
2022/03/28 05:51:22;;;;;;;24.63;19.45;;;8.20;60.00;;;;;;5020859;28;20053;-95
2022/03/28 05:53:48;;;;;;;24.90;19.83;;;8.30;60.20;;;;;;5032049;28;20123;-80
2022/03/28 05:56:14;;;;;;;25.83;20.60;;;8.30;60.20;;;;;;5018587;28;20033;-82
2022/03/28 05:58:40;;;;;;;24.42;19.40;;;8.30;60.20;;;;;;5025935;28;20045;-80
2022/03/28 06:01:05;;;;;;;23.63;19.83;;;8.30;60.20;;;;;;5016472;28;20105;-79
2022/03/28 06:03:31;;;;;;;23.98;19.92;;;8.40;60.30;;;;;;5020831;28;20029;-80
2022/03/28 06:05:57;;;;;;;24.08;19.65;;;8.30;60.20;;;;;;5034582;28;20067;-81
2022/03/28 06:08:23;;;;;;;21.90;18.45;;;8.40;60.40;;;;;;5011734;28;20044;-81
2022/03/28 06:10:49;;;;;;;24.73;20.05;;;8.40;60.30;;;;;;5022105;28;20033;-79
2022/03/28 06:13:16;;;;;;;25.65;19.80;;;8.40;60.30;;;;;;5014418;28;20385;-80
2022/03/28 06:15:43;;;;;;;24.08;19.48;;;8.40;60.30;;;;;;5018525;28;20123;-78
2022/03/28 06:18:09;;;;;;;21.85;18.83;;;8.40;60.30;;;;;;5017684;28;20550;-78
2022/03/28 06:20:35;;;;;;;23.58;19.25;;;8.40;60.30;;;;;;5022850;28;20125;-79
2022/03/28 06:23:02;;;;;;;23.00;19.05;;;8.40;60.30;;;;;;5010888;28;20139;-79
2022/03/28 06:25:29;;;;;;;21.42;17.83;;;8.40;60.30;;;;;;5015776;28;20425;-77
2022/03/28 06:27:55;;;;;;;22.83;19.15;;;8.50;60.50;;;;;;5012595;28;20120;-79
2022/03/28 06:30:21;;;;;;;23.67;19.38;;;8.50;60.50;;;;;;5016909;28;20033;-77
2022/03/28 06:32:47;;;;;;;24.58;19.50;;;8.50;60.50;;;;;;5018691;28;20154;-77
2022/03/28 06:35:13;;;;;;;21.65;18.45;;;8.50;60.40;;;;;;5016739;28;20396;-76
2022/03/28 06:37:39;;;;;;;22.52;18.73;;;8.60;60.60;;;;;;5017950;28;20086;-76
2022/03/28 06:40:05;;;;;;;22.83;18.92;;;8.60;60.60;;;;;;5017881;28;20026;-76
2022/03/28 06:42:32;;;;;;;23.55;19.45;;;8.60;60.50;;;;;;5018830;28;20033;-75
2022/03/28 06:45:01;;;;;;;23.77;19.88;;;8.70;60.60;;;;;;5020663;28;20037;-76
2022/03/28 06:47:28;;;;;;;21.85;18.20;;;8.70;60.60;;;;;;5020992;28;20052;-84
2022/03/28 06:49:53;;;;;;;21.55;18.45;;;8.80;60.70;;;;;;5023033;28;20048;-89
2022/03/28 06:52:20;;;;;;;22.75;19.05;;;8.80;60.60;;;;;;5018613;28;20497;-87
2022/03/28 06:54:46;;;;;;;21.98;18.25;;;8.90;60.80;;;;;;5035362;28;20078;-90
2022/03/28 06:57:12;;;;;;;19.58;16.92;;;8.90;60.70;;;;;;5021089;28;20033;-89
2022/03/28 06:59:38;;;;;;;21.92;18.33;;;8.90;60.70;;;;;;5027040;28;20097;-93
2022/03/28 07:02:04;;;;;;;21.25;17.73;;;8.90;60.60;;;;;;5021270;28;20033;-90
2022/03/28 07:04:30;;;;;;;17.98;15.95;;;9.00;60.70;;;;;;5026524;28;20491;-94
2022/03/28 07:06:56;;;;;;;19.38;17.15;;;9.00;60.70;;;;;;5026679;28;20037;-93
2022/03/28 07:09:22;;;;;;;22.25;18.05;;;9.10;60.80;;;;;;5011334;28;20057;-88
2022/03/28 07:11:48;;;;;;;20.52;17.67;;;9.10;60.70;;;;;;5009495;28;20776;-92
2022/03/28 07:14:16;;;;;;;21.20;17.10;;;9.20;60.80;;;;;;5040744;28;20037;-91
2022/03/28 07:16:42;;;;;;;21.60;18.33;;;9.30;60.90;;;;;;5019442;28;20151;-92
2022/03/28 07:19:08;;;;;;;18.88;16.63;;;9.30;60.80;;;;;;5024190;28;20051;-85
2022/03/28 07:21:34;;;;;;;21.25;17.77;;;9.40;60.90;;;;;;5035736;28;20357;-88
2022/03/28 07:24:01;;;;;;;21.58;17.38;;;9.40;60.80;;;;;;5021586;28;20029;-88
2022/03/28 07:26:27;;;;;;;19.73;16.65;;;9.40;60.70;;;;;;5036465;28;20033;-92
2022/03/28 07:28:53;;;;;;;21.67;17.67;;;9.50;60.90;;;;;;5013484;28;20076;-87
2022/03/28 07:31:18;;;;;;;20.80;16.15;;;9.50;60.80;;;;;;5022702;28;20030;-86
2022/03/28 07:33:45;;;;;;;19.73;17.55;;;9.50;60.70;;;;;;5040616;28;20554;-85
2022/03/28 07:36:11;;;;;;;19.42;16.88;;;9.60;60.80;;;;;;5025825;28;20033;-83
2022/03/28 07:38:37;;;;;;;18.55;16.52;;;9.70;60.90;;;;;;5021198;28;20407;-88
2022/03/28 07:41:04;;;;;;;17.40;15.35;;;9.80;60.90;;;;;;5035154;28;20035;-89
2022/03/28 07:43:30;;;;;;;22.83;16.80;;;9.80;60.80;;;;;;5023928;28;20634;-86
2022/03/28 07:45:56;;;;;;;18.55;16.55;;;9.90;60.90;;;;;;5019641;28;20053;-88
2022/03/28 07:48:23;;;;;;;18.13;16.23;;;10.00;61.00;;;;;;5022018;28;20046;-84
2022/03/28 07:50:49;;;;;;;20.00;16.38;;;10.00;60.80;;;;;;5032246;28;20026;-89
2022/03/28 07:53:16;;;;;;;20.27;17.08;;;10.10;60.80;;;;;;5041853;28;20040;-88
2022/03/28 07:55:42;;;;;;;18.70;16.40;;;10.30;61.00;;;;;;5024201;28;20025;-86
2022/03/28 07:58:09;;;;;;;18.92;17.00;;;10.40;61.00;;;;;;5025215;28;20552;-88
2022/03/28 08:00:37;;;;;;;18.95;17.05;;;10.50;60.80;;;;;;5021932;28;20033;-88
2022/03/28 08:03:04;;;;;;;19.25;16.65;;;10.60;60.70;;;;;;5020090;28;20022;-87
2022/03/28 08:05:30;;;;;;;19.52;17.52;;;10.70;60.70;;;;;;5027763;28;20465;-92
2022/03/28 08:07:57;;;;;;;20.10;16.70;;;10.80;60.80;;;;;;5029221;28;20070;-91
2022/03/28 08:10:23;;;;;;;18.67;16.33;;;10.80;60.70;;;;;;5023227;28;20030;-93
2022/03/28 08:12:50;;;;;;;17.10;15.27;;;10.90;60.70;;;;;;5043588;28;20040;-93
2022/03/28 08:15:17;;;;;;;18.30;16.17;;;11.00;60.80;;;;;;5045205;28;20026;-89
2022/03/28 08:17:43;;;;;;;18.98;16.48;;;11.10;61.00;;;;;;5045345;28;20021;-88
2022/03/28 08:20:11;;;;;;;19.67;15.27;;;11.20;61.50;;;;;;5058821;28;20048;-88
2022/03/28 08:22:39;;;;;;;18.92;16.50;;;11.30;61.00;;;;;;5041997;28;20030;-87
2022/03/28 08:25:05;;;;;;;20.92;18.00;;;11.40;60.90;;;;;;5035699;28;20053;-88
2022/03/28 08:27:31;;;;;;;20.30;17.70;;;11.50;60.90;;;;;;5041341;28;20017;-88
2022/03/28 08:29:57;;;;;;;21.85;17.52;;;11.50;60.70;;;;;;5060262;28;20575;-88
2022/03/28 08:32:23;;;;;;;23.65;18.35;;;11.60;60.70;;;;;;5059395;28;20129;-89
2022/03/28 08:34:50;;;;;;;23.02;18.92;;;11.70;60.70;;;;;;5058224;28;20073;-91
2022/03/28 08:37:17;;;;;;;23.83;18.85;;;11.80;60.70;;;;;;5046051;28;20567;-90
2022/03/28 08:39:44;;;;;;;20.98;17.67;;;11.90;60.70;;;;;;5018970;28;20052;-92
2022/03/28 08:42:14;;;;;;;21.35;18.05;;;12.00;60.60;;;;;;5021252;28;20099;-91
2022/03/28 08:44:41;;;;;;;23.05;18.40;;;12.10;60.60;;;;;;5019783;28;20029;-90
2022/03/28 08:47:12;;;;;;;23.98;17.38;;;12.20;60.50;;;;;;5017232;28;20505;-93
2022/03/28 08:49:38;;;;;;;25.85;19.73;;;12.30;60.40;;;;;;5020814;28;20130;-95
2022/03/28 08:52:07;;;;;;;20.13;16.83;;;12.40;60.40;;;;;;5021443;28;20060;-85
2022/03/28 08:54:34;;;;;;;20.60;17.67;;;12.50;60.40;;;;;;5033362;28;20037;-86
2022/03/28 08:57:00;;;;;;;24.52;20.27;;;12.60;60.40;;;;;;5034401;28;20026;-90
2022/03/28 08:59:26;;;;;;;20.90;18.02;;;12.70;60.40;;;;;;4995911;28;20120;-87
2022/03/28 09:01:52;;;;;;;21.55;17.63;;;12.80;60.40;;;;;;5008342;28;20033;-93
2022/03/28 09:04:18;;;;;;;21.92;17.48;;;12.80;60.20;;;;;;5020464;28;20059;-90
2022/03/28 09:06:44;;;;;;;20.10;17.25;;;12.90;60.30;;;;;;5022197;28;20059;-89
2022/03/28 09:09:31;;;;;;;25.67;20.17;;;12.90;60.20;;;;;;5035948;28;20736;-89
2022/03/28 09:12:06;;;;;;;25.85;19.23;;;13.00;60.20;;;;;;5029256;28;20037;-93
2022/03/28 09:14:35;;;;;;;23.27;18.98;;;13.00;60.20;;;;;;5021737;28;20037;-93
2022/03/28 09:17:05;;;;;;;23.83;19.60;;;13.00;60.10;;;;;;5024631;28;20108;-93
2022/03/28 09:20:04;;;;;;;20.60;18.33;;;13.10;60.10;;;;;;5023742;28;20037;-90
2022/03/28 09:22:34;;;;;;;20.92;17.10;;;13.10;60.00;;;;;;4979808;28;20533;-92
2022/03/28 09:25:03;;;;;;;28.98;20.75;;;13.20;60.10;;;;;;4999348;28;20065;-92
2022/03/28 09:27:36;;;;;;;23.13;18.63;;;13.20;60.00;;;;;;5022861;28;20034;-93
2022/03/28 09:30:11;;;;;;;24.17;20.48;;;13.30;60.00;;;;;;5020295;28;20667;-90
2022/03/28 09:32:49;;;;;;;21.55;18.48;;;13.30;60.00;;;;;;5022558;28;20036;-93
2022/03/28 09:35:21;;;;;;;23.98;19.85;;;13.40;60.00;;;;;;5024588;28;20029;-93
2022/03/28 09:37:58;;;;;;;24.95;18.65;;;13.40;59.90;;;;;;5007428;28;20033;-94
2022/03/28 09:40:33;;;;;;;24.42;18.55;;;13.50;59.90;;;;;;5030990;28;20207;-94
2022/03/28 09:43:01;;;;;;;25.02;18.98;;;13.50;59.70;;;;;;5022161;28;20029;-95
2022/03/28 09:45:37;;;;;;;24.67;18.67;;;13.60;59.70;;;;;;5022222;28;20065;-94
2022/03/28 09:48:11;;;;;;;22.85;19.45;;;13.70;59.70;;;;;;5015363;28;20057;-90
2022/03/28 09:50:42;;;;;;;23.80;19.45;;;13.80;59.70;;;;;;5021303;28;20032;-95
2022/03/28 09:53:31;;;;;;;21.20;18.67;;;13.90;59.70;;;;;;5040927;28;20083;-89
2022/03/28 09:56:01;;;;;;;23.33;20.15;;;14.00;59.70;;;;;;5034872;28;20168;-94
2022/03/28 09:58:32;;;;;;;21.42;17.50;;;14.00;59.50;;;;;;5019627;28;20022;-89
2022/03/28 10:00:58;;;;;;;20.83;17.23;;;14.10;59.60;;;;;;5003521;28;20037;-94
2022/03/28 10:03:25;;;;;;;20.13;17.90;;;14.20;59.60;;;;;;5021536;28;20033;-87
2022/03/28 10:05:53;;;;;;;20.67;15.07;;;14.20;59.40;;;;;;5025559;28;20033;-82
2022/03/28 10:08:19;;;;;;;19.77;14.02;;;14.30;59.60;;;;;;5014766;28;20037;-84
2022/03/28 10:10:45;;;;;;;14.43;11.75;;;14.40;60.10;;;;;;5018351;28;20056;-82
2022/03/28 10:13:11;;;;;;;16.35;13.57;;;14.60;60.80;;;;;;5012585;28;20493;-82
2022/03/28 10:15:37;;;;;;;16.80;12.43;;;14.90;61.40;;;;;;5018834;28;20176;-92
2022/03/28 10:18:04;;;;;;;18.15;13.68;;;15.10;61.50;;;;;;5019666;28;20805;-94
2022/03/28 10:20:30;;;;;;;16.80;13.38;;;15.40;61.70;;;;;;5022406;28;20033;-87
2022/03/28 10:22:58;;;;;;;18.42;14.73;;;15.50;61.40;;;;;;5027950;28;20033;-88
2022/03/28 10:25:25;;;;;;;16.70;13.75;;;15.60;61.20;;;;;;5022702;28;20057;-86
2022/03/28 10:27:54;;;;;;;18.02;14.95;;;15.70;61.10;;;;;;5028131;28;20509;-92
2022/03/28 10:30:30;;;;;;;16.13;14.45;;;15.70;61.00;;;;;;5004834;28;20029;-93
2022/03/28 10:33:22;;;;;;;16.55;14.10;;;15.80;61.10;;;;;;5030002;28;20040;-94
2022/03/28 10:35:58;;;;;;;18.13;14.63;;;15.80;61.20;;;;;;5024076;28;20018;-84
2022/03/28 10:38:24;;;;;;;17.05;14.77;;;15.90;61.30;;;;;;5021036;28;20095;-82
2022/03/28 10:41:02;;;;;;;16.58;13.90;;;15.90;61.30;;;;;;5017007;28;20053;-82
2022/03/28 10:43:30;;;;;;;16.77;14.98;;;16.00;61.40;;;;;;5016696;28;20421;-82
2022/03/28 10:46:02;;;;;;;14.07;11.25;;;16.00;61.20;;;;;;5037997;28;20368;-83
2022/03/28 10:48:35;;;;;;;16.65;12.65;;;16.20;61.60;;;;;;5005194;28;20061;-82
2022/03/28 10:51:11;;;;;;;16.90;14.25;;;16.20;61.60;;;;;;5018439;28;20210;-81
2022/03/28 10:53:43;;;;;;;16.83;12.77;;;16.30;61.60;;;;;;5023366;28;20029;-82
2022/03/28 10:56:13;;;;;;;16.33;12.80;;;16.40;61.60;;;;;;5040410;28;20025;-82
2022/03/28 10:58:54;;;;;;;16.77;14.35;;;16.40;61.40;;;;;;5021557;28;20041;-81
2022/03/28 11:01:49;;;;;;;19.27;16.80;;;16.40;61.30;;;;;;5023172;28;20030;-81
2022/03/28 11:04:23;;;;;;;17.10;15.30;;;16.50;61.20;;;;;;5022586;28;20049;-80
2022/03/28 11:07:00;;;;;;;17.45;14.98;;;16.50;61.10;;;;;;5032979;28;20022;-80
2022/03/28 11:09:48;;;;;;;17.15;14.90;;;16.50;60.80;;;;;;5020992;28;20053;-79
2022/03/28 11:12:40;;;;;;;17.60;15.30;;;16.60;60.80;;;;;;5015094;28;20532;-78
2022/03/28 11:15:19;;;;;;;19.17;14.50;;;16.60;60.50;;;;;;5021593;28;20035;-78
2022/03/28 11:17:57;;;;;;;16.95;13.90;;;16.70;60.60;;;;;;5019508;28;20072;-78
2022/03/28 11:20:25;;;;;;;17.13;14.35;;;16.70;60.30;;;;;;5018908;28;20030;-79
2022/03/28 11:22:55;;;;;;;18.60;15.88;;;16.80;60.40;;;;;;5013822;28;20030;-80
2022/03/28 11:25:28;;;;;;;17.20;15.40;;;16.80;60.20;;;;;;5015189;28;20041;-82
2022/03/28 11:28:12;;;;;;;18.75;16.08;;;16.90;60.10;;;;;;5020795;28;20087;-84
2022/03/28 11:30:44;;;;;;;16.20;12.82;;;17.00;60.00;;;;;;5022808;28;20096;-84
2022/03/28 11:33:13;;;;;;;14.35;12.88;;;17.00;59.90;;;;;;5030692;28;20132;-84
2022/03/28 11:35:49;;;;;;;16.27;13.07;;;17.10;60.10;;;;;;5024601;28;20029;-82
2022/03/28 11:38:19;;;;;;;15.77;13.00;;;17.20;60.10;;;;;;5032941;28;20113;-85
2022/03/28 11:40:45;;;;;;;14.93;13.02;;;17.20;59.80;;;;;;5023136;28;20030;-84
2022/03/28 11:43:11;;;;;;;14.48;12.95;;;17.30;59.80;;;;;;5022666;28;20037;-81
2022/03/28 11:45:49;;;;;;;16.38;13.57;;;17.30;59.50;;;;;;5017020;28;20119;-80
2022/03/28 11:48:17;;;;;;;15.15;13.50;;;17.50;59.60;;;;;;5020826;28;20441;-81
2022/03/28 11:50:44;;;;;;;14.65;12.35;;;17.50;59.40;;;;;;5023151;28;20030;-78
2022/03/28 11:53:14;;;;;;;14.15;12.68;;;17.60;59.40;;;;;;5017674;28;20426;-80
2022/03/28 11:55:51;;;;;;;14.98;13.05;;;17.70;59.30;;;;;;5022856;28;20026;-79
2022/03/28 11:58:26;;;;;;;14.00;12.30;;;17.80;59.20;;;;;;5017435;28;20515;-80
2022/03/28 12:00:52;;;;;;;13.65;12.27;;;17.80;59.00;;;;;;5006682;28;20140;-81
2022/03/28 12:03:18;;;;;;;15.38;13.27;;;17.90;59.00;;;;;;5016612;28;20124;-79
2022/03/28 12:05:45;;;;;;;15.93;13.30;;;18.00;59.00;;;;;;5013026;28;20038;-79
2022/03/28 12:08:15;;;;;;;14.27;11.80;;;18.00;58.70;;;;;;5030091;28;20074;-79
2022/03/28 12:10:45;;;;;;;13.35;11.85;;;18.10;58.80;;;;;;5015843;28;20041;-79
2022/03/28 12:13:11;;;;;;;15.18;13.60;;;18.20;58.80;;;;;;5032947;28;20036;-80
2022/03/28 12:15:40;;;;;;;14.18;12.38;;;18.20;58.60;;;;;;5028626;28;20029;-79
2022/03/28 12:18:09;;;;;;;15.38;12.70;;;18.30;58.60;;;;;;5024706;28;20028;-79
2022/03/28 12:20:40;;;;;;;13.88;12.38;;;18.30;58.50;;;;;;5015352;28;20480;-79
2022/03/28 12:23:07;;;;;;;17.00;12.85;;;18.30;58.30;;;;;;5017428;28;20088;-80
2022/03/28 12:25:35;;;;;;;14.02;11.60;;;18.40;58.40;;;;;;5021528;28;20470;-78
2022/03/28 12:28:05;;;;;;;13.23;11.82;;;18.40;58.20;;;;;;5015811;28;20494;-78
2022/03/28 12:30:35;;;;;;;14.15;12.10;;;18.50;58.20;;;;;;5011936;28;20038;-78
2022/03/28 12:33:17;;;;;;;14.43;12.05;;;18.60;58.20;;;;;;5014444;28;20041;-77
2022/03/28 12:35:50;;;;;;;12.13;10.75;;;18.70;58.10;;;;;;5036392;28;20064;-76
2022/03/28 12:38:29;;;;;;;14.80;11.52;;;18.80;58.10;;;;;;5020998;28;20449;-78
2022/03/28 12:41:01;;;;;;;12.90;11.60;;;18.80;57.80;;;;;;5007788;28;20517;-78